sensor_id;sensor_type;location;lat;lon;timestamp;temperature;humidity
12408;DHT22;6268;48.188;17.134;2023-05-07T00:00:06;16.00;99.90
12408;DHT22;6268;48.188;17.134;2023-05-07T00:02:36;16.00;99.90
12408;DHT22;6268;48.188;17.134;2023-05-07T00:05:08;16.00;99.90
12408;DHT22;6268;48.188;17.134;2023-05-07T00:07:37;16.00;99.90
12408;DHT22;6268;48.188;17.134;2023-05-07T00:10:07;16.00;99.90
12408;DHT22;6268;48.188;17.134;2023-05-07T00:12:37;16.00;99.90
12408;DHT22;6268;48.188;17.134;2023-05-07T00:15:07;15.90;99.90
12408;DHT22;6268;48.188;17.134;2023-05-07T00:17:36;15.90;99.90
12408;DHT22;6268;48.188;17.134;2023-05-07T00:20:08;15.90;99.90
12408;DHT22;6268;48.188;17.134;2023-05-07T00:22:37;15.80;99.90
12408;DHT22;6268;48.188;17.134;2023-05-07T00:25:07;15.80;99.90
12408;DHT22;6268;48.188;17.134;2023-05-07T00:27:37;15.80;99.90
12408;DHT22;6268;48.188;17.134;2023-05-07T00:30:07;15.90;99.90
12408;DHT22;6268;48.188;17.134;2023-05-07T00:32:37;15.80;99.90
12408;DHT22;6268;48.188;17.134;2023-05-07T00:35:08;15.90;99.90
12408;DHT22;6268;48.188;17.134;2023-05-07T00:37:38;15.90;99.90
12408;DHT22;6268;48.188;17.134;2023-05-07T00:40:07;16.00;99.90
12408;DHT22;6268;48.188;17.134;2023-05-07T00:42:37;16.00;99.90
12408;DHT22;6268;48.188;17.134;2023-05-07T00:45:07;16.00;99.90
12408;DHT22;6268;48.188;17.134;2023-05-07T00:47:37;16.00;99.90
12408;DHT22;6268;48.188;17.134;2023-05-07T00:50:09;16.00;99.90
12408;DHT22;6268;48.188;17.134;2023-05-07T00:52:39;16.00;99.90
12408;DHT22;6268;48.188;17.134;2023-05-07T00:55:09;15.80;99.90
12408;DHT22;6268;48.188;17.134;2023-05-07T00:57:40;15.70;99.90
12408;DHT22;6268;48.188;17.134;2023-05-07T01:00:10;15.60;99.90
12408;DHT22;6268;48.188;17.134;2023-05-07T01:02:41;15.70;99.90
12408;DHT22;6268;48.188;17.134;2023-05-07T01:05:14;15.40;99.90
12408;DHT22;6268;48.188;17.134;2023-05-07T01:07:45;15.40;99.90
12408;DHT22;6268;48.188;17.134;2023-05-07T01:10:15;15.40;99.90
12408;DHT22;6268;48.188;17.134;2023-05-07T01:12:47;15.50;99.90
12408;DHT22;6268;48.188;17.134;2023-05-07T01:15:17;15.40;99.90
12408;DHT22;6268;48.188;17.134;2023-05-07T01:17:46;15.30;99.90
12408;DHT22;6268;48.188;17.134;2023-05-07T01:20:17;15.30;99.90
12408;DHT22;6268;48.188;17.134;2023-05-07T01:22:48;15.30;99.90
12408;DHT22;6268;48.188;17.134;2023-05-07T01:25:18;15.20;99.90
12408;DHT22;6268;48.188;17.134;2023-05-07T01:27:47;15.20;99.90
12408;DHT22;6268;48.188;17.134;2023-05-07T01:30:17;14.90;99.90
12408;DHT22;6268;48.188;17.134;2023-05-07T01:32:52;14.90;99.90
12408;DHT22;6268;48.188;17.134;2023-05-07T01:35:30;14.70;99.90
12408;DHT22;6268;48.188;17.134;2023-05-07T01:38:04;14.70;99.90
12408;DHT22;6268;48.188;17.134;2023-05-07T01:40:34;14.70;99.90
12408;DHT22;6268;48.188;17.134;2023-05-07T01:43:03;14.70;99.90
12408;DHT22;6268;48.188;17.134;2023-05-07T01:45:32;14.90;99.90
12408;DHT22;6268;48.188;17.134;2023-05-07T01:48:03;14.90;99.90
12408;DHT22;6268;48.188;17.134;2023-05-07T01:50:33;14.90;99.90
12408;DHT22;6268;48.188;17.134;2023-05-07T01:53:04;14.90;99.90
12408;DHT22;6268;48.188;17.134;2023-05-07T01:55:33;14.90;99.90
12408;DHT22;6268;48.188;17.134;2023-05-07T01:58:04;14.80;99.90
12408;DHT22;6268;48.188;17.134;2023-05-07T02:00:33;14.90;99.90
12408;DHT22;6268;48.188;17.134;2023-05-07T02:03:01;14.70;99.90
12408;DHT22;6268;48.188;17.134;2023-05-07T02:05:30;14.70;99.90
12408;DHT22;6268;48.188;17.134;2023-05-07T02:07:59;14.70;99.90
12408;DHT22;6268;48.188;17.134;2023-05-07T02:10:29;14.70;99.90
12408;DHT22;6268;48.188;17.134;2023-05-07T02:12:58;14.70;99.90
12408;DHT22;6268;48.188;17.134;2023-05-07T02:15:28;14.80;99.90
12408;DHT22;6268;48.188;17.134;2023-05-07T02:18:02;14.90;99.90
12408;DHT22;6268;48.188;17.134;2023-05-07T02:20:32;14.80;99.90
12408;DHT22;6268;48.188;17.134;2023-05-07T02:23:00;14.80;99.90
12408;DHT22;6268;48.188;17.134;2023-05-07T02:25:31;14.80;99.90
12408;DHT22;6268;48.188;17.134;2023-05-07T02:27:59;14.80;99.90
12408;DHT22;6268;48.188;17.134;2023-05-07T02:30:28;14.80;99.90
12408;DHT22;6268;48.188;17.134;2023-05-07T02:32:57;14.80;99.90
12408;DHT22;6268;48.188;17.134;2023-05-07T02:35:26;14.80;99.90
12408;DHT22;6268;48.188;17.134;2023-05-07T02:37:54;14.80;99.90
12408;DHT22;6268;48.188;17.134;2023-05-07T02:40:23;14.80;99.90
12408;DHT22;6268;48.188;17.134;2023-05-07T02:42:53;14.70;99.90
12408;DHT22;6268;48.188;17.134;2023-05-07T02:45:22;14.70;99.90
12408;DHT22;6268;48.188;17.134;2023-05-07T02:47:50;14.80;99.90
12408;DHT22;6268;48.188;17.134;2023-05-07T02:50:19;14.70;99.90
12408;DHT22;6268;48.188;17.134;2023-05-07T02:52:48;14.70;99.90
12408;DHT22;6268;48.188;17.134;2023-05-07T02:55:17;14.50;99.90
12408;DHT22;6268;48.188;17.134;2023-05-07T02:57:46;14.50;99.90
12408;DHT22;6268;48.188;17.134;2023-05-07T03:00:18;14.50;99.90
12408;DHT22;6268;48.188;17.134;2023-05-07T03:02:47;14.50;99.90
12408;DHT22;6268;48.188;17.134;2023-05-07T03:05:16;14.60;99.90
12408;DHT22;6268;48.188;17.134;2023-05-07T03:07:45;14.60;99.90
12408;DHT22;6268;48.188;17.134;2023-05-07T03:10:14;14.70;99.90
12408;DHT22;6268;48.188;17.134;2023-05-07T03:12:43;14.70;99.90
12408;DHT22;6268;48.188;17.134;2023-05-07T03:15:12;14.60;99.90
12408;DHT22;6268;48.188;17.134;2023-05-07T03:17:42;14.60;99.90
12408;DHT22;6268;48.188;17.134;2023-05-07T03:20:11;14.60;99.90
12408;DHT22;6268;48.188;17.134;2023-05-07T03:22:41;14.60;99.90
12408;DHT22;6268;48.188;17.134;2023-05-07T03:25:10;14.60;99.90
12408;DHT22;6268;48.188;17.134;2023-05-07T03:27:39;14.50;99.90
12408;DHT22;6268;48.188;17.134;2023-05-07T03:30:09;14.40;99.90
12408;DHT22;6268;48.188;17.134;2023-05-07T03:32:39;14.40;99.90
12408;DHT22;6268;48.188;17.134;2023-05-07T03:35:10;14.40;99.90
12408;DHT22;6268;48.188;17.134;2023-05-07T03:37:39;14.50;99.90
12408;DHT22;6268;48.188;17.134;2023-05-07T03:40:08;14.50;99.90
12408;DHT22;6268;48.188;17.134;2023-05-07T03:42:40;14.50;99.90
12408;DHT22;6268;48.188;17.134;2023-05-07T03:45:09;14.50;99.90
12408;DHT22;6268;48.188;17.134;2023-05-07T03:47:38;14.40;99.90
12408;DHT22;6268;48.188;17.134;2023-05-07T03:50:07;14.40;99.90
12408;DHT22;6268;48.188;17.134;2023-05-07T03:52:39;14.40;99.90
12408;DHT22;6268;48.188;17.134;2023-05-07T03:55:08;14.40;99.90
12408;DHT22;6268;48.188;17.134;2023-05-07T03:57:37;14.50;99.90
12408;DHT22;6268;48.188;17.134;2023-05-07T04:00:07;14.60;99.90
12408;DHT22;6268;48.188;17.134;2023-05-07T04:02:36;14.50;99.90
12408;DHT22;6268;48.188;17.134;2023-05-07T04:05:06;14.40;99.90
12408;DHT22;6268;48.188;17.134;2023-05-07T04:07:35;14.50;99.90
12408;DHT22;6268;48.188;17.134;2023-05-07T04:10:06;14.60;99.90
12408;DHT22;6268;48.188;17.134;2023-05-07T04:12:36;14.60;99.90
12408;DHT22;6268;48.188;17.134;2023-05-07T04:15:05;14.60;99.90
12408;DHT22;6268;48.188;17.134;2023-05-07T04:17:35;14.60;99.90
12408;DHT22;6268;48.188;17.134;2023-05-07T04:20:05;14.60;99.90
12408;DHT22;6268;48.188;17.134;2023-05-07T04:22:35;14.50;99.90
12408;DHT22;6268;48.188;17.134;2023-05-07T04:25:06;14.50;99.90
12408;DHT22;6268;48.188;17.134;2023-05-07T04:27:36;14.60;99.90
12408;DHT22;6268;48.188;17.134;2023-05-07T04:30:06;14.70;99.90
12408;DHT22;6268;48.188;17.134;2023-05-07T04:32:36;14.70;99.90
12408;DHT22;6268;48.188;17.134;2023-05-07T04:35:06;14.80;99.90
12408;DHT22;6268;48.188;17.134;2023-05-07T04:37:35;14.80;99.90
12408;DHT22;6268;48.188;17.134;2023-05-07T04:40:06;14.80;99.90
12408;DHT22;6268;48.188;17.134;2023-05-07T04:42:37;15.00;99.90
12408;DHT22;6268;48.188;17.134;2023-05-07T04:45:06;15.10;99.90
12408;DHT22;6268;48.188;17.134;2023-05-07T04:47:37;15.10;99.90
12408;DHT22;6268;48.188;17.134;2023-05-07T04:50:07;15.10;99.90
12408;DHT22;6268;48.188;17.134;2023-05-07T04:52:36;15.20;99.90
12408;DHT22;6268;48.188;17.134;2023-05-07T04:55:08;15.20;99.90
12408;DHT22;6268;48.188;17.134;2023-05-07T04:57:37;15.40;99.90
12408;DHT22;6268;48.188;17.134;2023-05-07T05:00:08;15.60;99.90
12408;DHT22;6268;48.188;17.134;2023-05-07T05:02:37;15.70;99.90
12408;DHT22;6268;48.188;17.134;2023-05-07T05:05:07;15.90;99.90
12408;DHT22;6268;48.188;17.134;2023-05-07T05:07:36;16.40;99.90
12408;DHT22;6268;48.188;17.134;2023-05-07T05:10:07;17.10;99.90
12408;DHT22;6268;48.188;17.134;2023-05-07T05:12:36;17.60;99.90
12408;DHT22;6268;48.188;17.134;2023-05-07T05:15:06;17.50;99.90
12408;DHT22;6268;48.188;17.134;2023-05-07T05:17:37;17.60;99.90
12408;DHT22;6268;48.188;17.134;2023-05-07T05:20:07;18.00;99.90
12408;DHT22;6268;48.188;17.134;2023-05-07T05:22:38;18.70;99.90
12408;DHT22;6268;48.188;17.134;2023-05-07T05:25:08;19.40;99.90
12408;DHT22;6268;48.188;17.134;2023-05-07T05:27:37;20.20;99.90
12408;DHT22;6268;48.188;17.134;2023-05-07T05:30:07;20.70;99.90
12408;DHT22;6268;48.188;17.134;2023-05-07T05:32:36;20.90;99.90
12408;DHT22;6268;48.188;17.134;2023-05-07T05:35:06;20.90;99.90
12408;DHT22;6268;48.188;17.134;2023-05-07T05:37:36;21.00;99.90
12408;DHT22;6268;48.188;17.134;2023-05-07T05:40:06;20.90;99.90
12408;DHT22;6268;48.188;17.134;2023-05-07T05:42:36;21.30;99.90
12408;DHT22;6268;48.188;17.134;2023-05-07T05:45:06;21.10;99.90
12408;DHT22;6268;48.188;17.134;2023-05-07T05:47:37;20.90;99.90
12408;DHT22;6268;48.188;17.134;2023-05-07T05:50:07;21.00;99.90
12408;DHT22;6268;48.188;17.134;2023-05-07T05:52:36;21.10;99.90
12408;DHT22;6268;48.188;17.134;2023-05-07T05:55:08;21.00;99.90
12408;DHT22;6268;48.188;17.134;2023-05-07T05:57:37;21.00;99.90
12408;DHT22;6268;48.188;17.134;2023-05-07T06:00:07;21.10;99.90
12408;DHT22;6268;48.188;17.134;2023-05-07T06:02:37;21.10;99.90
12408;DHT22;6268;48.188;17.134;2023-05-07T06:05:07;20.90;99.90
12408;DHT22;6268;48.188;17.134;2023-05-07T06:07:36;20.70;99.90
12408;DHT22;6268;48.188;17.134;2023-05-07T06:10:07;20.70;99.90
12408;DHT22;6268;48.188;17.134;2023-05-07T06:12:37;20.60;99.90
12408;DHT22;6268;48.188;17.134;2023-05-07T06:15:06;21.00;99.90
12408;DHT22;6268;48.188;17.134;2023-05-07T06:17:35;21.40;99.90
12408;DHT22;6268;48.188;17.134;2023-05-07T06:20:06;21.50;99.90
12408;DHT22;6268;48.188;17.134;2023-05-07T06:22:36;21.70;99.90
12408;DHT22;6268;48.188;17.134;2023-05-07T06:25:05;21.80;99.90
12408;DHT22;6268;48.188;17.134;2023-05-07T06:27:36;22.10;99.90
12408;DHT22;6268;48.188;17.134;2023-05-07T06:30:07;22.50;99.90
12408;DHT22;6268;48.188;17.134;2023-05-07T06:32:37;22.70;99.90
12408;DHT22;6268;48.188;17.134;2023-05-07T06:35:06;22.90;99.90
12408;DHT22;6268;48.188;17.134;2023-05-07T06:37:35;23.40;99.90
12408;DHT22;6268;48.188;17.134;2023-05-07T06:40:06;23.80;99.90
12408;DHT22;6268;48.188;17.134;2023-05-07T06:42:37;24.20;99.90
12408;DHT22;6268;48.188;17.134;2023-05-07T06:45:08;24.60;99.90
12408;DHT22;6268;48.188;17.134;2023-05-07T06:47:37;24.80;99.90
12408;DHT22;6268;48.188;17.134;2023-05-07T06:50:07;24.50;99.90
12408;DHT22;6268;48.188;17.134;2023-05-07T06:52:37;24.30;99.90
12408;DHT22;6268;48.188;17.134;2023-05-07T06:55:07;24.60;99.90
12408;DHT22;6268;48.188;17.134;2023-05-07T06:57:39;24.70;99.90
12408;DHT22;6268;48.188;17.134;2023-05-07T07:00:09;24.40;99.90
12408;DHT22;6268;48.188;17.134;2023-05-07T07:02:38;23.90;99.90
12408;DHT22;6268;48.188;17.134;2023-05-07T07:05:08;23.70;99.90
12408;DHT22;6268;48.188;17.134;2023-05-07T07:07:37;23.30;99.90
12408;DHT22;6268;48.188;17.134;2023-05-07T07:10:07;23.60;99.90
12408;DHT22;6268;48.188;17.134;2023-05-07T07:12:36;24.30;99.90
12408;DHT22;6268;48.188;17.134;2023-05-07T07:15:07;24.00;99.90
12408;DHT22;6268;48.188;17.134;2023-05-07T07:17:36;23.50;99.90
12408;DHT22;6268;48.188;17.134;2023-05-07T07:20:06;22.90;99.90
12408;DHT22;6268;48.188;17.134;2023-05-07T07:22:38;22.30;99.90
12408;DHT22;6268;48.188;17.134;2023-05-07T07:25:07;22.10;99.90
12408;DHT22;6268;48.188;17.134;2023-05-07T07:27:39;22.30;99.90
12408;DHT22;6268;48.188;17.134;2023-05-07T07:30:08;22.70;99.90
12408;DHT22;6268;48.188;17.134;2023-05-07T07:32:38;22.90;99.90
12408;DHT22;6268;48.188;17.134;2023-05-07T07:35:07;23.00;99.90
12408;DHT22;6268;48.188;17.134;2023-05-07T07:37:36;23.00;99.90
12408;DHT22;6268;48.188;17.134;2023-05-07T07:40:06;22.80;99.90
12408;DHT22;6268;48.188;17.134;2023-05-07T07:42:36;22.10;99.90
12408;DHT22;6268;48.188;17.134;2023-05-07T07:45:08;22.00;99.90
12408;DHT22;6268;48.188;17.134;2023-05-07T07:47:37;21.60;99.90
12408;DHT22;6268;48.188;17.134;2023-05-07T07:50:07;21.40;99.90
12408;DHT22;6268;48.188;17.134;2023-05-07T07:52:37;20.80;99.90
12408;DHT22;6268;48.188;17.134;2023-05-07T07:55:06;20.70;99.90
12408;DHT22;6268;48.188;17.134;2023-05-07T07:57:36;20.80;99.90
12408;DHT22;6268;48.188;17.134;2023-05-07T08:00:07;21.90;99.90
12408;DHT22;6268;48.188;17.134;2023-05-07T08:02:37;22.10;99.90
12408;DHT22;6268;48.188;17.134;2023-05-07T08:05:06;22.50;99.90
12408;DHT22;6268;48.188;17.134;2023-05-07T08:07:35;23.30;99.90
12408;DHT22;6268;48.188;17.134;2023-05-07T08:10:04;24.20;99.90
12408;DHT22;6268;48.188;17.134;2023-05-07T08:12:33;25.30;99.90
12408;DHT22;6268;48.188;17.134;2023-05-07T08:15:03;26.20;99.80
12408;DHT22;6268;48.188;17.134;2023-05-07T08:17:34;26.50;97.50
12408;DHT22;6268;48.188;17.134;2023-05-07T08:20:03;26.90;96.10
12408;DHT22;6268;48.188;17.134;2023-05-07T08:22:34;27.20;93.40
12408;DHT22;6268;48.188;17.134;2023-05-07T08:25:04;27.70;91.10
12408;DHT22;6268;48.188;17.134;2023-05-07T08:27:33;27.60;90.40
12408;DHT22;6268;48.188;17.134;2023-05-07T08:30:03;27.90;87.50
12408;DHT22;6268;48.188;17.134;2023-05-07T08:32:33;27.80;83.80
12408;DHT22;6268;48.188;17.134;2023-05-07T08:35:02;27.70;84.40
12408;DHT22;6268;48.188;17.134;2023-05-07T08:37:31;27.80;84.00
12408;DHT22;6268;48.188;17.134;2023-05-07T08:40:00;27.20;84.90
12408;DHT22;6268;48.188;17.134;2023-05-07T08:42:29;26.90;84.90
12408;DHT22;6268;48.188;17.134;2023-05-07T08:45:04;26.70;86.00
12408;DHT22;6268;48.188;17.134;2023-05-07T08:47:43;27.30;82.90
12408;DHT22;6268;48.188;17.134;2023-05-07T08:50:13;27.30;83.20
12408;DHT22;6268;48.188;17.134;2023-05-07T08:52:42;27.10;84.60
12408;DHT22;6268;48.188;17.134;2023-05-07T08:55:13;27.30;82.10
12408;DHT22;6268;48.188;17.134;2023-05-07T08:57:42;27.30;81.80
12408;DHT22;6268;48.188;17.134;2023-05-07T09:00:13;27.60;82.30
12408;DHT22;6268;48.188;17.134;2023-05-07T09:02:44;28.00;79.00
12408;DHT22;6268;48.188;17.134;2023-05-07T09:05:12;28.60;75.80
12408;DHT22;6268;48.188;17.134;2023-05-07T09:07:41;29.10;70.00
12408;DHT22;6268;48.188;17.134;2023-05-07T09:10:10;29.30;69.10
12408;DHT22;6268;48.188;17.134;2023-05-07T09:12:40;29.10;67.30
12408;DHT22;6268;48.188;17.134;2023-05-07T09:15:09;28.70;69.60
12408;DHT22;6268;48.188;17.134;2023-05-07T09:17:39;29.10;68.60
12408;DHT22;6268;48.188;17.134;2023-05-07T09:20:11;29.20;68.50
12408;DHT22;6268;48.188;17.134;2023-05-07T09:22:40;29.40;64.50
12408;DHT22;6268;48.188;17.134;2023-05-07T09:25:09;29.20;64.10
12408;DHT22;6268;48.188;17.134;2023-05-07T09:27:40;29.20;62.90
12408;DHT22;6268;48.188;17.134;2023-05-07T09:30:11;29.10;63.50
12408;DHT22;6268;48.188;17.134;2023-05-07T09:32:40;28.70;63.40
12408;DHT22;6268;48.188;17.134;2023-05-07T09:35:16;28.60;65.10
12408;DHT22;6268;48.188;17.134;2023-05-07T09:37:45;29.10;65.10
12408;DHT22;6268;48.188;17.134;2023-05-07T09:40:21;29.40;63.60
12408;DHT22;6268;48.188;17.134;2023-05-07T09:42:50;29.10;64.50
12408;DHT22;6268;48.188;17.134;2023-05-07T09:45:22;29.10;64.60
12408;DHT22;6268;48.188;17.134;2023-05-07T09:47:55;29.20;64.00
12408;DHT22;6268;48.188;17.134;2023-05-07T09:50:28;29.20;64.70
12408;DHT22;6268;48.188;17.134;2023-05-07T09:52:58;29.70;62.70
12408;DHT22;6268;48.188;17.134;2023-05-07T09:55:27;29.30;60.70
12408;DHT22;6268;48.188;17.134;2023-05-07T09:57:57;28.40;63.60
12408;DHT22;6268;48.188;17.134;2023-05-07T10:00:30;28.30;61.50
12408;DHT22;6268;48.188;17.134;2023-05-07T10:03:00;28.40;61.80
12408;DHT22;6268;48.188;17.134;2023-05-07T10:05:32;28.50;62.40
12408;DHT22;6268;48.188;17.134;2023-05-07T10:08:03;28.50;64.40
12408;DHT22;6268;48.188;17.134;2023-05-07T10:10:33;28.80;62.70
12408;DHT22;6268;48.188;17.134;2023-05-07T10:13:02;29.10;62.40
12408;DHT22;6268;48.188;17.134;2023-05-07T10:15:33;29.10;62.10
12408;DHT22;6268;48.188;17.134;2023-05-07T10:18:03;28.70;61.80
12408;DHT22;6268;48.188;17.134;2023-05-07T10:20:43;28.80;60.10
12408;DHT22;6268;48.188;17.134;2023-05-07T10:23:19;28.80;61.10
12408;DHT22;6268;48.188;17.134;2023-05-07T10:25:52;28.70;62.30
12408;DHT22;6268;48.188;17.134;2023-05-07T10:28:28;28.70;63.00
12408;DHT22;6268;48.188;17.134;2023-05-07T10:31:12;28.80;62.10
12408;DHT22;6268;48.188;17.134;2023-05-07T10:33:53;28.50;61.10
12408;DHT22;6268;48.188;17.134;2023-05-07T10:36:26;28.50;61.30
12408;DHT22;6268;48.188;17.134;2023-05-07T10:38:55;28.80;59.60
12408;DHT22;6268;48.188;17.134;2023-05-07T10:41:24;28.80;61.60
12408;DHT22;6268;48.188;17.134;2023-05-07T10:43:53;28.80;59.80
12408;DHT22;6268;48.188;17.134;2023-05-07T10:46:22;28.50;59.60
12408;DHT22;6268;48.188;17.134;2023-05-07T10:49:09;28.10;61.00
12408;DHT22;6268;48.188;17.134;2023-05-07T10:51:40;27.70;60.70
12408;DHT22;6268;48.188;17.134;2023-05-07T10:54:21;27.90;61.10
12408;DHT22;6268;48.188;17.134;2023-05-07T10:56:51;28.00;60.30
12408;DHT22;6268;48.188;17.134;2023-05-07T10:59:36;27.90;61.20
12408;DHT22;6268;48.188;17.134;2023-05-07T11:02:10;28.10;60.30
12408;DHT22;6268;48.188;17.134;2023-05-07T11:04:41;28.30;59.40
12408;DHT22;6268;48.188;17.134;2023-05-07T11:07:30;28.60;58.50
12408;DHT22;6268;48.188;17.134;2023-05-07T11:12:52;28.20;58.80
12408;DHT22;6268;48.188;17.134;2023-05-07T11:18:14;27.30;60.70
12408;DHT22;6268;48.188;17.134;2023-05-07T11:23:59;27.00;59.00
12408;DHT22;6268;48.188;17.134;2023-05-07T11:26:29;26.90;58.70
12408;DHT22;6268;48.188;17.134;2023-05-07T11:29:00;26.50;58.10
12408;DHT22;6268;48.188;17.134;2023-05-07T11:31:28;26.20;59.00
12408;DHT22;6268;48.188;17.134;2023-05-07T11:33:58;25.70;61.20
12408;DHT22;6268;48.188;17.134;2023-05-07T11:36:33;26.00;64.50
12408;DHT22;6268;48.188;17.134;2023-05-07T11:39:03;26.20;59.80
12408;DHT22;6268;48.188;17.134;2023-05-07T11:41:35;26.20;59.20
12408;DHT22;6268;48.188;17.134;2023-05-07T11:44:04;26.20;59.40
12408;DHT22;6268;48.188;17.134;2023-05-07T11:46:33;25.80;59.80
12408;DHT22;6268;48.188;17.134;2023-05-07T11:49:02;25.60;60.00
12408;DHT22;6268;48.188;17.134;2023-05-07T11:51:31;25.80;59.60
12408;DHT22;6268;48.188;17.134;2023-05-07T11:54:00;25.50;60.50
12408;DHT22;6268;48.188;17.134;2023-05-07T11:56:34;25.60;60.80
12408;DHT22;6268;48.188;17.134;2023-05-07T11:59:03;25.50;60.60
12408;DHT22;6268;48.188;17.134;2023-05-07T12:01:35;25.10;59.50
12408;DHT22;6268;48.188;17.134;2023-05-07T12:04:04;24.90;60.00
12408;DHT22;6268;48.188;17.134;2023-05-07T12:06:36;24.90;63.50
12408;DHT22;6268;48.188;17.134;2023-05-07T12:09:06;25.00;60.90
12408;DHT22;6268;48.188;17.134;2023-05-07T12:11:39;25.10;60.90
12408;DHT22;6268;48.188;17.134;2023-05-07T12:14:08;24.80;62.30
12408;DHT22;6268;48.188;17.134;2023-05-07T12:16:39;24.80;62.50
12408;DHT22;6268;48.188;17.134;2023-05-07T12:19:08;24.70;61.80
12408;DHT22;6268;48.188;17.134;2023-05-07T12:21:41;24.60;63.90
12408;DHT22;6268;48.188;17.134;2023-05-07T12:24:10;24.20;63.00
12408;DHT22;6268;48.188;17.134;2023-05-07T12:26:41;24.40;62.80
12408;DHT22;6268;48.188;17.134;2023-05-07T12:29:09;24.40;61.80
12408;DHT22;6268;48.188;17.134;2023-05-07T12:31:40;24.10;62.10
12408;DHT22;6268;48.188;17.134;2023-05-07T12:34:11;24.10;62.30
12408;DHT22;6268;48.188;17.134;2023-05-07T12:36:40;24.00;62.30
12408;DHT22;6268;48.188;17.134;2023-05-07T12:39:09;23.90;62.50
12408;DHT22;6268;48.188;17.134;2023-05-07T12:41:55;23.90;62.50
12408;DHT22;6268;48.188;17.134;2023-05-07T12:44:28;23.80;62.90
12408;DHT22;6268;48.188;17.134;2023-05-07T12:47:01;23.80;63.10
12408;DHT22;6268;48.188;17.134;2023-05-07T12:49:30;23.80;62.80
12408;DHT22;6268;48.188;17.134;2023-05-07T12:51:59;23.70;62.80
12408;DHT22;6268;48.188;17.134;2023-05-07T12:54:28;23.30;65.30
12408;DHT22;6268;48.188;17.134;2023-05-07T12:57:04;23.00;64.40
12408;DHT22;6268;48.188;17.134;2023-05-07T12:59:35;23.40;66.70
12408;DHT22;6268;48.188;17.134;2023-05-07T13:02:05;23.40;64.60
12408;DHT22;6268;48.188;17.134;2023-05-07T13:04:34;23.30;65.70
12408;DHT22;6268;48.188;17.134;2023-05-07T13:07:03;23.40;65.80
12408;DHT22;6268;48.188;17.134;2023-05-07T13:09:32;23.40;65.80
12408;DHT22;6268;48.188;17.134;2023-05-07T13:12:02;23.50;65.70
12408;DHT22;6268;48.188;17.134;2023-05-07T13:14:31;23.10;66.00
12408;DHT22;6268;48.188;17.134;2023-05-07T13:17:00;23.20;66.10
12408;DHT22;6268;48.188;17.134;2023-05-07T13:19:29;23.30;65.40
12408;DHT22;6268;48.188;17.134;2023-05-07T13:21:58;23.50;65.10
12408;DHT22;6268;48.188;17.134;2023-05-07T13:24:27;23.50;65.20
12408;DHT22;6268;48.188;17.134;2023-05-07T13:26:56;23.50;66.70
12408;DHT22;6268;48.188;17.134;2023-05-07T13:29:27;23.50;66.50
12408;DHT22;6268;48.188;17.134;2023-05-07T13:31:57;23.50;65.90
12408;DHT22;6268;48.188;17.134;2023-05-07T13:34:26;23.40;66.00
12408;DHT22;6268;48.188;17.134;2023-05-07T13:36:56;23.50;66.50
12408;DHT22;6268;48.188;17.134;2023-05-07T13:39:25;23.00;67.50
12408;DHT22;6268;48.188;17.134;2023-05-07T13:41:53;22.80;65.50
12408;DHT22;6268;48.188;17.134;2023-05-07T13:44:22;22.70;66.00
12408;DHT22;6268;48.188;17.134;2023-05-07T13:46:52;22.80;66.60
12408;DHT22;6268;48.188;17.134;2023-05-07T13:49:22;22.90;67.40
12408;DHT22;6268;48.188;17.134;2023-05-07T13:51:51;23.00;67.60
12408;DHT22;6268;48.188;17.134;2023-05-07T13:54:19;22.70;67.30
12408;DHT22;6268;48.188;17.134;2023-05-07T13:56:48;22.70;68.00
12408;DHT22;6268;48.188;17.134;2023-05-07T13:59:17;22.80;66.20
12408;DHT22;6268;48.188;17.134;2023-05-07T14:01:45;22.40;67.10
12408;DHT22;6268;48.188;17.134;2023-05-07T14:04:16;22.60;66.90
12408;DHT22;6268;48.188;17.134;2023-05-07T14:09:32;22.60;67.50
12408;DHT22;6268;48.188;17.134;2023-05-07T14:12:01;22.30;70.20
12408;DHT22;6268;48.188;17.134;2023-05-07T14:14:30;22.30;66.60
12408;DHT22;6268;48.188;17.134;2023-05-07T14:16:59;22.20;66.20
12408;DHT22;6268;48.188;17.134;2023-05-07T14:19:29;22.00;65.80
12408;DHT22;6268;48.188;17.134;2023-05-07T14:21:58;21.90;65.30
12408;DHT22;6268;48.188;17.134;2023-05-07T14:24:27;21.90;67.00
12408;DHT22;6268;48.188;17.134;2023-05-07T14:27:04;21.90;66.50
12408;DHT22;6268;48.188;17.134;2023-05-07T14:29:34;22.00;66.40
12408;DHT22;6268;48.188;17.134;2023-05-07T14:32:03;22.00;68.50
12408;DHT22;6268;48.188;17.134;2023-05-07T14:34:34;21.90;67.40
12408;DHT22;6268;48.188;17.134;2023-05-07T14:37:03;21.70;67.90
12408;DHT22;6268;48.188;17.134;2023-05-07T14:39:32;21.80;68.60
12408;DHT22;6268;48.188;17.134;2023-05-07T14:42:00;21.80;68.90
12408;DHT22;6268;48.188;17.134;2023-05-07T14:44:29;21.90;68.00
12408;DHT22;6268;48.188;17.134;2023-05-07T14:46:58;22.00;68.40
12408;DHT22;6268;48.188;17.134;2023-05-07T14:49:28;21.70;67.70
12408;DHT22;6268;48.188;17.134;2023-05-07T14:51:58;21.70;68.40
12408;DHT22;6268;48.188;17.134;2023-05-07T14:54:28;21.60;67.80
12408;DHT22;6268;48.188;17.134;2023-05-07T14:56:56;21.60;68.10
12408;DHT22;6268;48.188;17.134;2023-05-07T14:59:25;21.70;68.10
12408;DHT22;6268;48.188;17.134;2023-05-07T15:01:54;21.80;67.50
12408;DHT22;6268;48.188;17.134;2023-05-07T15:04:24;21.60;67.20
12408;DHT22;6268;48.188;17.134;2023-05-07T15:06:53;21.50;68.30
12408;DHT22;6268;48.188;17.134;2023-05-07T15:09:24;21.20;69.10
12408;DHT22;6268;48.188;17.134;2023-05-07T15:11:53;21.20;70.10
12408;DHT22;6268;48.188;17.134;2023-05-07T15:14:23;21.10;71.80
12408;DHT22;6268;48.188;17.134;2023-05-07T15:16:52;21.00;70.30
12408;DHT22;6268;48.188;17.134;2023-05-07T15:19:21;20.90;70.50
12408;DHT22;6268;48.188;17.134;2023-05-07T15:21:52;20.90;71.10
12408;DHT22;6268;48.188;17.134;2023-05-07T15:24:21;20.80;72.30
12408;DHT22;6268;48.188;17.134;2023-05-07T15:26:51;21.00;73.10
12408;DHT22;6268;48.188;17.134;2023-05-07T15:29:20;20.90;71.60
12408;DHT22;6268;48.188;17.134;2023-05-07T15:31:49;20.80;72.40
12408;DHT22;6268;48.188;17.134;2023-05-07T15:34:19;20.80;72.30
12408;DHT22;6268;48.188;17.134;2023-05-07T15:36:48;20.80;71.40
12408;DHT22;6268;48.188;17.134;2023-05-07T15:39:17;20.80;72.30
12408;DHT22;6268;48.188;17.134;2023-05-07T15:41:47;20.80;71.60
12408;DHT22;6268;48.188;17.134;2023-05-07T15:44:17;20.80;71.40
12408;DHT22;6268;48.188;17.134;2023-05-07T15:46:46;20.50;72.00
12408;DHT22;6268;48.188;17.134;2023-05-07T15:49:14;20.50;72.70
12408;DHT22;6268;48.188;17.134;2023-05-07T15:51:43;20.50;71.90
12408;DHT22;6268;48.188;17.134;2023-05-07T15:54:12;20.30;71.80
12408;DHT22;6268;48.188;17.134;2023-05-07T15:56:43;20.10;72.80
12408;DHT22;6268;48.188;17.134;2023-05-07T15:59:12;20.00;72.80